sensor_id;sensor_type;location;lat;lon;timestamp;temperature;humidity
47174;DHT22;36730;49.036;9.094;2023-02-28T00:00:04;22.10;41.80
47174;DHT22;36730;49.036;9.094;2023-02-28T00:02:36;22.10;41.70
47174;DHT22;36730;49.036;9.094;2023-02-28T00:05:02;22.10;41.60
47174;DHT22;36730;49.036;9.094;2023-02-28T00:07:29;22.10;41.70
47174;DHT22;36730;49.036;9.094;2023-02-28T00:09:54;22.10;41.70
47174;DHT22;36730;49.036;9.094;2023-02-28T00:12:20;22.10;41.60
47174;DHT22;36730;49.036;9.094;2023-02-28T00:14:45;22.10;41.50
47174;DHT22;36730;49.036;9.094;2023-02-28T00:17:11;22.10;41.50
47174;DHT22;36730;49.036;9.094;2023-02-28T00:19:36;22.10;41.60
47174;DHT22;36730;49.036;9.094;2023-02-28T00:22:02;22.10;41.60
47174;DHT22;36730;49.036;9.094;2023-02-28T00:24:27;22.00;41.40
47174;DHT22;36730;49.036;9.094;2023-02-28T00:26:53;22.00;41.30
47174;DHT22;36730;49.036;9.094;2023-02-28T00:29:18;22.00;41.40
47174;DHT22;36730;49.036;9.094;2023-02-28T00:31:44;22.00;41.60
47174;DHT22;36730;49.036;9.094;2023-02-28T00:34:09;22.00;41.40
47174;DHT22;36730;49.036;9.094;2023-02-28T00:36:35;22.00;41.60
47174;DHT22;36730;49.036;9.094;2023-02-28T00:39:00;22.00;41.60
47174;DHT22;36730;49.036;9.094;2023-02-28T00:41:25;22.00;41.40
47174;DHT22;36730;49.036;9.094;2023-02-28T00:43:51;22.00;41.50
47174;DHT22;36730;49.036;9.094;2023-02-28T00:46:17;22.00;41.50
47174;DHT22;36730;49.036;9.094;2023-02-28T00:48:42;21.90;41.30
47174;DHT22;36730;49.036;9.094;2023-02-28T00:51:08;21.90;41.40
47174;DHT22;36730;49.036;9.094;2023-02-28T00:53:34;21.90;41.40
47174;DHT22;36730;49.036;9.094;2023-02-28T00:55:59;21.90;41.30
47174;DHT22;36730;49.036;9.094;2023-02-28T00:58:25;21.90;41.40
47174;DHT22;36730;49.036;9.094;2023-02-28T01:00:51;21.90;41.30
47174;DHT22;36730;49.036;9.094;2023-02-28T01:03:17;21.90;41.30
47174;DHT22;36730;49.036;9.094;2023-02-28T01:05:43;21.90;41.30
47174;DHT22;36730;49.036;9.094;2023-02-28T01:08:08;21.90;41.20
47174;DHT22;36730;49.036;9.094;2023-02-28T01:10:36;21.90;41.30
47174;DHT22;36730;49.036;9.094;2023-02-28T01:13:02;21.90;41.30
47174;DHT22;36730;49.036;9.094;2023-02-28T01:15:27;21.90;41.20
47174;DHT22;36730;49.036;9.094;2023-02-28T01:17:53;21.90;41.10
47174;DHT22;36730;49.036;9.094;2023-02-28T01:20:18;21.80;41.20
47174;DHT22;36730;49.036;9.094;2023-02-28T01:22:44;21.90;41.30
47174;DHT22;36730;49.036;9.094;2023-02-28T01:25:09;21.80;41.30
47174;DHT22;36730;49.036;9.094;2023-02-28T01:27:35;21.80;41.00
47174;DHT22;36730;49.036;9.094;2023-02-28T01:30:01;21.80;41.20
47174;DHT22;36730;49.036;9.094;2023-02-28T01:32:27;21.80;41.10
47174;DHT22;36730;49.036;9.094;2023-02-28T01:34:52;21.80;41.10
47174;DHT22;36730;49.036;9.094;2023-02-28T01:37:18;21.80;41.10
47174;DHT22;36730;49.036;9.094;2023-02-28T01:39:43;21.80;41.10
47174;DHT22;36730;49.036;9.094;2023-02-28T01:42:09;21.80;41.10
47174;DHT22;36730;49.036;9.094;2023-02-28T01:47:19;21.80;41.00
47174;DHT22;36730;49.036;9.094;2023-02-28T01:49:45;21.80;40.90
47174;DHT22;36730;49.036;9.094;2023-02-28T01:52:10;21.80;41.00
47174;DHT22;36730;49.036;9.094;2023-02-28T01:54:40;21.70;41.00
47174;DHT22;36730;49.036;9.094;2023-02-28T01:57:07;21.70;41.00
47174;DHT22;36730;49.036;9.094;2023-02-28T01:59:35;21.80;40.90
47174;DHT22;36730;49.036;9.094;2023-02-28T02:02:02;21.70;40.90
47174;DHT22;36730;49.036;9.094;2023-02-28T02:04:31;21.70;40.90
47174;DHT22;36730;49.036;9.094;2023-02-28T02:06:57;21.80;40.90
47174;DHT22;36730;49.036;9.094;2023-02-28T02:09:23;21.70;40.80
47174;DHT22;36730;49.036;9.094;2023-02-28T02:11:49;21.70;40.90
47174;DHT22;36730;49.036;9.094;2023-02-28T02:27:26;21.60;40.80
47174;DHT22;36730;49.036;9.094;2023-02-28T02:35:14;21.60;40.80
47174;DHT22;36730;49.036;9.094;2023-02-28T02:40:14;21.60;40.80
47174;DHT22;36730;49.036;9.094;2023-02-28T02:42:45;21.60;40.70
47174;DHT22;36730;49.036;9.094;2023-02-28T02:45:21;21.60;40.60
47174;DHT22;36730;49.036;9.094;2023-02-28T02:47:47;21.60;41.30
47174;DHT22;36730;49.036;9.094;2023-02-28T02:50:17;21.60;40.50
47174;DHT22;36730;49.036;9.094;2023-02-28T02:52:46;21.50;40.50
47174;DHT22;36730;49.036;9.094;2023-02-28T02:55:15;21.50;40.50
47174;DHT22;36730;49.036;9.094;2023-02-28T03:00:12;21.60;40.60
47174;DHT22;36730;49.036;9.094;2023-02-28T03:02:39;21.50;40.50
47174;DHT22;36730;49.036;9.094;2023-02-28T03:05:07;21.60;40.50
47174;DHT22;36730;49.036;9.094;2023-02-28T03:07:33;21.50;40.40
47174;DHT22;36730;49.036;9.094;2023-02-28T03:09:59;21.50;40.50
47174;DHT22;36730;49.036;9.094;2023-02-28T03:12:28;21.50;40.50
47174;DHT22;36730;49.036;9.094;2023-02-28T03:15:19;21.50;40.40
47174;DHT22;36730;49.036;9.094;2023-02-28T03:17:53;21.50;40.40
47174;DHT22;36730;49.036;9.094;2023-02-28T03:20:38;21.50;40.40
47174;DHT22;36730;49.036;9.094;2023-02-28T03:23:23;21.50;40.40
47174;DHT22;36730;49.036;9.094;2023-02-28T03:33:21;21.50;40.30
47174;DHT22;36730;49.036;9.094;2023-02-28T03:35:52;21.50;40.30
47174;DHT22;36730;49.036;9.094;2023-02-28T03:38:25;21.50;40.30
47174;DHT22;36730;49.036;9.094;2023-02-28T03:40:54;21.50;40.30
47174;DHT22;36730;49.036;9.094;2023-02-28T03:43:25;21.40;40.20
47174;DHT22;36730;49.036;9.094;2023-02-28T03:45:51;21.40;40.30
47174;DHT22;36730;49.036;9.094;2023-02-28T03:48:40;21.50;40.30
47174;DHT22;36730;49.036;9.094;2023-02-28T03:51:04;21.40;40.20
47174;DHT22;36730;49.036;9.094;2023-02-28T03:53:35;21.40;40.20
47174;DHT22;36730;49.036;9.094;2023-02-28T03:56:03;21.40;40.20
47174;DHT22;36730;49.036;9.094;2023-02-28T04:00:59;21.40;40.20
47174;DHT22;36730;49.036;9.094;2023-02-28T04:03:34;21.40;40.20
47174;DHT22;36730;49.036;9.094;2023-02-28T04:06:00;21.40;40.20
47174;DHT22;36730;49.036;9.094;2023-02-28T04:08:25;21.40;40.20
47174;DHT22;36730;49.036;9.094;2023-02-28T04:10:56;21.40;40.20
47174;DHT22;36730;49.036;9.094;2023-02-28T04:13:23;21.40;40.30
47174;DHT22;36730;49.036;9.094;2023-02-28T04:15:48;21.30;40.30
47174;DHT22;36730;49.036;9.094;2023-02-28T04:18:13;21.30;40.30
47174;DHT22;36730;49.036;9.094;2023-02-28T04:20:39;21.30;40.40
47174;DHT22;36730;49.036;9.094;2023-02-28T04:23:04;21.30;40.50
47174;DHT22;36730;49.036;9.094;2023-02-28T04:25:30;21.40;41.30
47174;DHT22;36730;49.036;9.094;2023-02-28T04:27:55;21.40;40.60
47174;DHT22;36730;49.036;9.094;2023-02-28T04:30:21;21.40;40.40
47174;DHT22;36730;49.036;9.094;2023-02-28T04:32:47;21.40;40.40
47174;DHT22;36730;49.036;9.094;2023-02-28T04:35:12;21.40;40.30
47174;DHT22;36730;49.036;9.094;2023-02-28T04:37:38;21.40;40.70
47174;DHT22;36730;49.036;9.094;2023-02-28T04:40:03;21.40;40.40
47174;DHT22;36730;49.036;9.094;2023-02-28T04:42:29;21.50;40.80
47174;DHT22;36730;49.036;9.094;2023-02-28T04:45:01;21.50;40.60
47174;DHT22;36730;49.036;9.094;2023-02-28T04:47:27;21.50;41.30
47174;DHT22;36730;49.036;9.094;2023-02-28T04:49:52;21.50;40.80
47174;DHT22;36730;49.036;9.094;2023-02-28T04:52:18;21.50;40.70
47174;DHT22;36730;49.036;9.094;2023-02-28T04:54:43;21.60;41.10
47174;DHT22;36730;49.036;9.094;2023-02-28T04:57:09;21.60;40.90
47174;DHT22;36730;49.036;9.094;2023-02-28T04:59:34;21.60;40.80
47174;DHT22;36730;49.036;9.094;2023-02-28T05:02:00;21.60;40.90
47174;DHT22;36730;49.036;9.094;2023-02-28T05:04:25;21.60;41.00
47174;DHT22;36730;49.036;9.094;2023-02-28T05:06:51;21.70;40.90
47174;DHT22;36730;49.036;9.094;2023-02-28T05:09:16;21.70;40.90
47174;DHT22;36730;49.036;9.094;2023-02-28T05:11:41;21.70;41.30
47174;DHT22;36730;49.036;9.094;2023-02-28T05:14:11;21.70;41.50
47174;DHT22;36730;49.036;9.094;2023-02-28T05:16:36;21.80;41.80
47174;DHT22;36730;49.036;9.094;2023-02-28T05:19:02;21.80;41.80
47174;DHT22;36730;49.036;9.094;2023-02-28T05:21:34;21.90;42.00
47174;DHT22;36730;49.036;9.094;2023-02-28T05:24:01;21.90;41.50
47174;DHT22;36730;49.036;9.094;2023-02-28T05:26:27;21.90;41.70
47174;DHT22;36730;49.036;9.094;2023-02-28T05:28:53;22.00;41.80
47174;DHT22;36730;49.036;9.094;2023-02-28T05:31:18;22.00;42.10
47174;DHT22;36730;49.036;9.094;2023-02-28T05:33:44;22.00;41.80
47174;DHT22;36730;49.036;9.094;2023-02-28T05:36:10;22.00;42.00
47174;DHT22;36730;49.036;9.094;2023-02-28T05:38:35;22.00;42.30
47174;DHT22;36730;49.036;9.094;2023-02-28T05:41:04;22.00;42.90
47174;DHT22;36730;49.036;9.094;2023-02-28T05:43:29;22.10;42.20
47174;DHT22;36730;49.036;9.094;2023-02-28T05:45:55;22.10;42.40
47174;DHT22;36730;49.036;9.094;2023-02-28T05:48:20;22.10;42.20
47174;DHT22;36730;49.036;9.094;2023-02-28T05:50:46;22.10;42.70
47174;DHT22;36730;49.036;9.094;2023-02-28T05:53:12;22.10;42.90
47174;DHT22;36730;49.036;9.094;2023-02-28T05:55:37;22.20;43.10
47174;DHT22;36730;49.036;9.094;2023-02-28T05:58:03;22.20;43.50
47174;DHT22;36730;49.036;9.094;2023-02-28T06:00:28;22.20;43.90
47174;DHT22;36730;49.036;9.094;2023-02-28T06:02:57;22.20;44.40
47174;DHT22;36730;49.036;9.094;2023-02-28T06:05:26;22.30;43.40
47174;DHT22;36730;49.036;9.094;2023-02-28T06:07:52;22.30;43.60
47174;DHT22;36730;49.036;9.094;2023-02-28T06:10:17;22.30;44.00
47174;DHT22;36730;49.036;9.094;2023-02-28T06:12:43;22.30;43.40
47174;DHT22;36730;49.036;9.094;2023-02-28T06:15:12;22.30;43.90
47174;DHT22;36730;49.036;9.094;2023-02-28T06:17:38;22.40;44.20
47174;DHT22;36730;49.036;9.094;2023-02-28T06:20:04;22.30;44.10
47174;DHT22;36730;49.036;9.094;2023-02-28T06:22:29;22.40;43.80
47174;DHT22;36730;49.036;9.094;2023-02-28T06:24:56;22.40;44.50
47174;DHT22;36730;49.036;9.094;2023-02-28T06:27:22;22.50;44.40
47174;DHT22;36730;49.036;9.094;2023-02-28T06:29:48;22.50;45.30
47174;DHT22;36730;49.036;9.094;2023-02-28T06:32:14;22.50;45.60
47174;DHT22;36730;49.036;9.094;2023-02-28T06:34:39;22.50;45.50
47174;DHT22;36730;49.036;9.094;2023-02-28T06:37:05;22.50;45.60
47174;DHT22;36730;49.036;9.094;2023-02-28T06:39:30;22.60;45.80
47174;DHT22;36730;49.036;9.094;2023-02-28T06:41:56;22.50;44.80
47174;DHT22;36730;49.036;9.094;2023-02-28T06:44:22;22.60;44.00
47174;DHT22;36730;49.036;9.094;2023-02-28T06:46:47;22.60;44.40
47174;DHT22;36730;49.036;9.094;2023-02-28T06:49:13;22.60;44.40
47174;DHT22;36730;49.036;9.094;2023-02-28T06:51:40;22.60;44.20
47174;DHT22;36730;49.036;9.094;2023-02-28T06:54:07;22.60;43.90
47174;DHT22;36730;49.036;9.094;2023-02-28T06:56:35;22.60;44.40
47174;DHT22;36730;49.036;9.094;2023-02-28T06:59:00;22.60;44.20
47174;DHT22;36730;49.036;9.094;2023-02-28T07:01:26;22.60;44.90
47174;DHT22;36730;49.036;9.094;2023-02-28T07:03:53;22.60;45.00
47174;DHT22;36730;49.036;9.094;2023-02-28T07:06:20;22.70;44.30
47174;DHT22;36730;49.036;9.094;2023-02-28T07:08:47;22.70;44.50
47174;DHT22;36730;49.036;9.094;2023-02-28T07:11:12;22.70;43.90
47174;DHT22;36730;49.036;9.094;2023-02-28T07:13:38;22.70;43.70
47174;DHT22;36730;49.036;9.094;2023-02-28T07:16:04;22.70;43.80
47174;DHT22;36730;49.036;9.094;2023-02-28T07:18:31;22.70;43.70
47174;DHT22;36730;49.036;9.094;2023-02-28T07:20:56;22.70;44.20
47174;DHT22;36730;49.036;9.094;2023-02-28T07:23:22;22.80;44.40
47174;DHT22;36730;49.036;9.094;2023-02-28T07:25:48;22.80;44.60
47174;DHT22;36730;49.036;9.094;2023-02-28T07:28:14;22.80;44.90
47174;DHT22;36730;49.036;9.094;2023-02-28T07:30:40;22.80;44.90
47174;DHT22;36730;49.036;9.094;2023-02-28T07:33:05;22.90;45.60
47174;DHT22;36730;49.036;9.094;2023-02-28T07:35:31;22.80;44.80
47174;DHT22;36730;49.036;9.094;2023-02-28T07:37:57;22.90;45.40
47174;DHT22;36730;49.036;9.094;2023-02-28T07:40:23;22.80;46.60
47174;DHT22;36730;49.036;9.094;2023-02-28T07:42:48;22.90;45.40
47174;DHT22;36730;49.036;9.094;2023-02-28T07:45:14;22.90;44.70
47174;DHT22;36730;49.036;9.094;2023-02-28T07:47:40;23.00;44.60
47174;DHT22;36730;49.036;9.094;2023-02-28T07:50:06;23.00;44.70
47174;DHT22;36730;49.036;9.094;2023-02-28T07:52:32;22.90;44.90
47174;DHT22;36730;49.036;9.094;2023-02-28T07:54:58;23.00;44.60
47174;DHT22;36730;49.036;9.094;2023-02-28T07:57:23;23.00;43.70
47174;DHT22;36730;49.036;9.094;2023-02-28T07:59:49;23.00;41.30
47174;DHT22;36730;49.036;9.094;2023-02-28T08:02:15;23.00;41.50
47174;DHT22;36730;49.036;9.094;2023-02-28T08:04:40;22.90;42.90
47174;DHT22;36730;49.036;9.094;2023-02-28T08:07:06;22.90;43.20
47174;DHT22;36730;49.036;9.094;2023-02-28T08:09:33;22.90;43.00
47174;DHT22;36730;49.036;9.094;2023-02-28T08:11:59;22.90;47.50
47174;DHT22;36730;49.036;9.094;2023-02-28T08:14:24;23.00;44.80
47174;DHT22;36730;49.036;9.094;2023-02-28T08:16:50;23.00;44.80
47174;DHT22;36730;49.036;9.094;2023-02-28T08:19:16;23.00;43.90
47174;DHT22;36730;49.036;9.094;2023-02-28T08:21:41;23.00;43.80
47174;DHT22;36730;49.036;9.094;2023-02-28T08:24:06;23.00;43.30
47174;DHT22;36730;49.036;9.094;2023-02-28T08:26:32;23.10;43.00
47174;DHT22;36730;49.036;9.094;2023-02-28T08:28:58;23.10;43.00
47174;DHT22;36730;49.036;9.094;2023-02-28T08:31:23;23.10;43.10
47174;DHT22;36730;49.036;9.094;2023-02-28T08:33:49;23.10;43.30
47174;DHT22;36730;49.036;9.094;2023-02-28T08:36:17;23.20;43.00
47174;DHT22;36730;49.036;9.094;2023-02-28T08:38:42;23.20;43.30
47174;DHT22;36730;49.036;9.094;2023-02-28T08:41:09;23.30;43.80
47174;DHT22;36730;49.036;9.094;2023-02-28T08:43:35;23.30;43.30
47174;DHT22;36730;49.036;9.094;2023-02-28T08:46:00;23.30;43.80
47174;DHT22;36730;49.036;9.094;2023-02-28T08:48:27;23.30;45.00
47174;DHT22;36730;49.036;9.094;2023-02-28T08:51:03;23.40;43.50
47174;DHT22;36730;49.036;9.094;2023-02-28T08:53:29;23.40;45.00
47174;DHT22;36730;49.036;9.094;2023-02-28T08:56:02;23.40;43.70
47174;DHT22;36730;49.036;9.094;2023-02-28T08:58:28;23.50;43.50
47174;DHT22;36730;49.036;9.094;2023-02-28T09:00:54;23.50;43.20
47174;DHT22;36730;49.036;9.094;2023-02-28T09:03:20;23.60;43.60
47174;DHT22;36730;49.036;9.094;2023-02-28T09:05:56;23.60;43.40
47174;DHT22;36730;49.036;9.094;2023-02-28T09:08:23;23.60;43.80
47174;DHT22;36730;49.036;9.094;2023-02-28T09:10:48;23.60;44.10
47174;DHT22;36730;49.036;9.094;2023-02-28T09:13:14;23.60;44.90
47174;DHT22;36730;49.036;9.094;2023-02-28T09:15:39;23.60;44.60
47174;DHT22;36730;49.036;9.094;2023-02-28T09:18:05;23.60;44.80
47174;DHT22;36730;49.036;9.094;2023-02-28T09:20:30;23.70;44.50
47174;DHT22;36730;49.036;9.094;2023-02-28T09:22:56;23.80;44.60
47174;DHT22;36730;49.036;9.094;2023-02-28T09:25:21;23.70;43.70
47174;DHT22;36730;49.036;9.094;2023-02-28T09:27:47;23.80;44.60
47174;DHT22;36730;49.036;9.094;2023-02-28T09:30:12;23.80;43.60
47174;DHT22;36730;49.036;9.094;2023-02-28T09:32:38;23.80;43.10
47174;DHT22;36730;49.036;9.094;2023-02-28T09:35:04;23.80;42.00
47174;DHT22;36730;49.036;9.094;2023-02-28T09:37:30;23.90;42.60
47174;DHT22;36730;49.036;9.094;2023-02-28T09:39:56;23.90;42.80
47174;DHT22;36730;49.036;9.094;2023-02-28T09:42:25;23.90;43.50
47174;DHT22;36730;49.036;9.094;2023-02-28T09:44:54;23.90;42.90
47174;DHT22;36730;49.036;9.094;2023-02-28T09:47:27;23.90;42.80
47174;DHT22;36730;49.036;9.094;2023-02-28T09:49:53;24.00;43.50
47174;DHT22;36730;49.036;9.094;2023-02-28T09:52:21;23.90;42.60
47174;DHT22;36730;49.036;9.094;2023-02-28T09:54:49;24.00;42.90
47174;DHT22;36730;49.036;9.094;2023-02-28T10:00:02;24.00;43.10
47174;DHT22;36730;49.036;9.094;2023-02-28T10:02:47;24.00;43.50
47174;DHT22;36730;49.036;9.094;2023-02-28T10:05:18;24.00;43.30
47174;DHT22;36730;49.036;9.094;2023-02-28T10:12:58;24.10;43.00
47174;DHT22;36730;49.036;9.094;2023-02-28T10:15:25;24.10;43.90
47174;DHT22;36730;49.036;9.094;2023-02-28T10:18:06;24.10;43.50
47174;DHT22;36730;49.036;9.094;2023-02-28T10:20:35;24.20;43.70
47174;DHT22;36730;49.036;9.094;2023-02-28T10:23:09;24.20;43.50
47174;DHT22;36730;49.036;9.094;2023-02-28T10:25:37;24.20;44.40
47174;DHT22;36730;49.036;9.094;2023-02-28T10:28:13;24.20;43.30
47174;DHT22;36730;49.036;9.094;2023-02-28T10:30:43;24.20;43.50
47174;DHT22;36730;49.036;9.094;2023-02-28T10:33:14;24.20;43.50
47174;DHT22;36730;49.036;9.094;2023-02-28T10:35:41;24.30;43.60
47174;DHT22;36730;49.036;9.094;2023-02-28T10:38:10;24.30;43.40
47174;DHT22;36730;49.036;9.094;2023-02-28T10:40:39;24.30;43.90
47174;DHT22;36730;49.036;9.094;2023-02-28T10:43:07;24.30;43.90
47174;DHT22;36730;49.036;9.094;2023-02-28T10:45:59;24.40;43.70
47174;DHT22;36730;49.036;9.094;2023-02-28T10:48:39;24.40;42.80
47174;DHT22;36730;49.036;9.094;2023-02-28T10:51:07;24.40;43.90
47174;DHT22;36730;49.036;9.094;2023-02-28T10:53:34;24.40;43.70
47174;DHT22;36730;49.036;9.094;2023-02-28T10:56:22;24.50;43.10
47174;DHT22;36730;49.036;9.094;2023-02-28T11:04:15;24.50;42.00
47174;DHT22;36730;49.036;9.094;2023-02-28T11:06:42;24.60;41.50
47174;DHT22;36730;49.036;9.094;2023-02-28T11:09:19;24.60;42.00
47174;DHT22;36730;49.036;9.094;2023-02-28T11:11:47;24.60;41.60
47174;DHT22;36730;49.036;9.094;2023-02-28T11:14:20;24.60;41.90
47174;DHT22;36730;49.036;9.094;2023-02-28T11:16:46;24.60;41.30
47174;DHT22;36730;49.036;9.094;2023-02-28T11:19:46;24.70;41.70
47174;DHT22;36730;49.036;9.094;2023-02-28T11:22:04;24.70;40.80
47174;DHT22;36730;49.036;9.094;2023-02-28T11:24:33;24.70;41.00
47174;DHT22;36730;49.036;9.094;2023-02-28T11:27:00;24.70;41.10
47174;DHT22;36730;49.036;9.094;2023-02-28T11:29:32;24.80;41.30
47174;DHT22;36730;49.036;9.094;2023-02-28T11:34:31;24.80;43.10
47174;DHT22;36730;49.036;9.094;2023-02-28T11:36:58;24.90;42.40
47174;DHT22;36730;49.036;9.094;2023-02-28T11:39:24;24.90;41.30
47174;DHT22;36730;49.036;9.094;2023-02-28T11:46:54;25.10;41.80
47174;DHT22;36730;49.036;9.094;2023-02-28T11:51:48;25.10;42.50
47174;DHT22;36730;49.036;9.094;2023-02-28T11:54:23;25.10;42.20
47174;DHT22;36730;49.036;9.094;2023-02-28T11:56:53;25.20;42.40
47174;DHT22;36730;49.036;9.094;2023-02-28T11:59:35;25.20;41.60
47174;DHT22;36730;49.036;9.094;2023-02-28T12:04:33;25.20;41.80
47174;DHT22;36730;49.036;9.094;2023-02-28T12:07:15;25.20;42.40
47174;DHT22;36730;49.036;9.094;2023-02-28T12:12:12;25.20;41.60
47174;DHT22;36730;49.036;9.094;2023-02-28T12:14:51;25.30;41.80
47174;DHT22;36730;49.036;9.094;2023-02-28T12:27:10;25.50;43.00
47174;DHT22;36730;49.036;9.094;2023-02-28T12:29:43;25.50;43.30
47174;DHT22;36730;49.036;9.094;2023-02-28T12:32:27;25.50;42.70
47174;DHT22;36730;49.036;9.094;2023-02-28T12:34:56;25.50;42.10
47174;DHT22;36730;49.036;9.094;2023-02-28T12:37:56;25.50;42.30
47174;DHT22;36730;49.036;9.094;2023-02-28T12:40:15;25.60;42.40
47174;DHT22;36730;49.036;9.094;2023-02-28T12:42:44;25.60;42.60
47174;DHT22;36730;49.036;9.094;2023-02-28T12:47:47;25.60;42.40
47174;DHT22;36730;49.036;9.094;2023-02-28T12:50:14;25.70;41.50
47174;DHT22;36730;49.036;9.094;2023-02-28T12:52:41;25.70;41.80
47174;DHT22;36730;49.036;9.094;2023-02-28T13:00:19;25.70;42.20
47174;DHT22;36730;49.036;9.094;2023-02-28T13:02:53;25.70;42.20
47174;DHT22;36730;49.036;9.094;2023-02-28T13:10:46;25.80;42.40
47174;DHT22;36730;49.036;9.094;2023-02-28T13:13:17;25.80;42.20
47174;DHT22;36730;49.036;9.094;2023-02-28T13:18:37;25.90;42.10
47174;DHT22;36730;49.036;9.094;2023-02-28T13:21:08;25.90;42.10
47174;DHT22;36730;49.036;9.094;2023-02-28T13:26:06;25.90;42.10
47174;DHT22;36730;49.036;9.094;2023-02-28T13:31:15;26.00;42.40
47174;DHT22;36730;49.036;9.094;2023-02-28T13:38:40;25.90;40.20
47174;DHT22;36730;49.036;9.094;2023-02-28T13:46:28;25.90;40.60
47174;DHT22;36730;49.036;9.094;2023-02-28T13:48:54;25.90;40.50
47174;DHT22;36730;49.036;9.094;2023-02-28T13:51:39;25.90;40.50
47174;DHT22;36730;49.036;9.094;2023-02-28T13:54:10;25.90;40.60
47174;DHT22;36730;49.036;9.094;2023-02-28T13:56:45;26.00;41.00
47174;DHT22;36730;49.036;9.094;2023-02-28T14:07:07;26.10;41.00
47174;DHT22;36730;49.036;9.094;2023-02-28T14:09:34;26.10;41.00
47174;DHT22;36730;49.036;9.094;2023-02-28T14:17:14;26.10;40.90
47174;DHT22;36730;49.036;9.094;2023-02-28T14:19:40;26.20;41.00
47174;DHT22;36730;49.036;9.094;2023-02-28T14:32:35;26.20;42.00
47174;DHT22;36730;49.036;9.094;2023-02-28T14:35:03;26.20;41.60
47174;DHT22;36730;49.036;9.094;2023-02-28T14:37:32;26.20;41.40
47174;DHT22;36730;49.036;9.094;2023-02-28T14:39:59;26.20;41.50
47174;DHT22;36730;49.036;9.094;2023-02-28T14:42:32;26.20;41.60
47174;DHT22;36730;49.036;9.094;2023-02-28T14:44:58;26.30;41.60
47174;DHT22;36730;49.036;9.094;2023-02-28T14:47:26;26.20;40.90
47174;DHT22;36730;49.036;9.094;2023-02-28T14:49:52;26.20;41.70
47174;DHT22;36730;49.036;9.094;2023-02-28T14:52:22;26.20;40.40
47174;DHT22;36730;49.036;9.094;2023-02-28T14:55:23;26.20;40.20
47174;DHT22;36730;49.036;9.094;2023-02-28T14:57:41;26.20;40.30
47174;DHT22;36730;49.036;9.094;2023-02-28T15:02:41;26.20;40.50
47174;DHT22;36730;49.036;9.094;2023-02-28T15:05:18;26.20;40.30
47174;DHT22;36730;49.036;9.094;2023-02-28T15:07:44;26.20;40.50
47174;DHT22;36730;49.036;9.094;2023-02-28T15:12:36;26.20;40.50
47174;DHT22;36730;49.036;9.094;2023-02-28T15:15:02;26.20;40.90
47174;DHT22;36730;49.036;9.094;2023-02-28T15:17:27;26.20;40.70
47174;DHT22;36730;49.036;9.094;2023-02-28T15:19:53;26.20;40.50
47174;DHT22;36730;49.036;9.094;2023-02-28T15:22:22;26.20;40.60
47174;DHT22;36730;49.036;9.094;2023-02-28T15:24:53;26.20;40.60
47174;DHT22;36730;49.036;9.094;2023-02-28T15:27:22;26.20;40.60
47174;DHT22;36730;49.036;9.094;2023-02-28T15:29:50;26.20;40.40
47174;DHT22;36730;49.036;9.094;2023-02-28T15:32:21;26.20;41.00
47174;DHT22;36730;49.036;9.094;2023-02-28T15:34:48;26.20;40.90
47174;DHT22;36730;49.036;9.094;2023-02-28T15:39:53;26.10;40.70
47174;DHT22;36730;49.036;9.094;2023-02-28T15:42:20;26.10;40.50
47174;DHT22;36730;49.036;9.094;2023-02-28T15:44:46;26.10;40.50
47174;DHT22;36730;49.036;9.094;2023-02-28T15:47:16;26.10;40.20
47174;DHT22;36730;49.036;9.094;2023-02-28T15:49:52;26.00;40.30
47174;DHT22;36730;49.036;9.094;2023-02-28T15:52:19;26.00;40.30
47174;DHT22;36730;49.036;9.094;2023-02-28T15:54:46;26.00;40.40
47174;DHT22;36730;49.036;9.094;2023-02-28T15:57:20;26.00;39.90
47174;DHT22;36730;49.036;9.094;2023-02-28T15:59:51;26.00;40.10
47174;DHT22;36730;49.036;9.094;2023-02-28T16:02:31;26.00;40.20
47174;DHT22;36730;49.036;9.094;2023-02-28T16:05:02;25.90;40.90
47174;DHT22;36730;49.036;9.094;2023-02-28T16:07:39;25.90;40.20
47174;DHT22;36730;49.036;9.094;2023-02-28T16:10:05;25.90;40.10
47174;DHT22;36730;49.036;9.094;2023-02-28T16:12:31;25.90;40.20
47174;DHT22;36730;49.036;9.094;2023-02-28T16:14:58;25.90;40.30
47174;DHT22;36730;49.036;9.094;2023-02-28T16:17:25;25.90;40.70
47174;DHT22;36730;49.036;9.094;2023-02-28T16:19:51;25.90;40.50
47174;DHT22;36730;49.036;9.094;2023-02-28T16:22:17;25.90;40.60
47174;DHT22;36730;49.036;9.094;2023-02-28T16:24:43;25.80;40.70
47174;DHT22;36730;49.036;9.094;2023-02-28T16:27:15;25.80;40.90
47174;DHT22;36730;49.036;9.094;2023-02-28T16:29:41;25.80;41.00
47174;DHT22;36730;49.036;9.094;2023-02-28T16:32:07;25.80;41.00
47174;DHT22;36730;49.036;9.094;2023-02-28T16:34:33;25.90;41.40
47174;DHT22;36730;49.036;9.094;2023-02-28T16:36:58;25.80;41.10
47174;DHT22;36730;49.036;9.094;2023-02-28T16:39:24;25.80;41.10
47174;DHT22;36730;49.036;9.094;2023-02-28T16:41:50;25.80;41.10
47174;DHT22;36730;49.036;9.094;2023-02-28T16:44:31;25.80;40.90
47174;DHT22;36730;49.036;9.094;2023-02-28T16:46:59;25.80;41.00
47174;DHT22;36730;49.036;9.094;2023-02-28T16:49:24;25.80;41.50
47174;DHT22;36730;49.036;9.094;2023-02-28T16:51:50;25.80;41.30
47174;DHT22;36730;49.036;9.094;2023-02-28T16:54:16;25.80;41.30
47174;DHT22;36730;49.036;9.094;2023-02-28T16:56:44;25.70;41.40
47174;DHT22;36730;49.036;9.094;2023-02-28T16:59:10;25.70;41.70
47174;DHT22;36730;49.036;9.094;2023-02-28T17:01:35;25.70;41.40
47174;DHT22;36730;49.036;9.094;2023-02-28T17:04:01;25.70;41.90
47174;DHT22;36730;49.036;9.094;2023-02-28T17:06:27;25.70;42.10
47174;DHT22;36730;49.036;9.094;2023-02-28T17:08:54;25.70;41.80
47174;DHT22;36730;49.036;9.094;2023-02-28T17:11:19;25.60;41.60
47174;DHT22;36730;49.036;9.094;2023-02-28T17:13:45;25.70;41.70
47174;DHT22;36730;49.036;9.094;2023-02-28T17:16:17;25.60;41.60
47174;DHT22;36730;49.036;9.094;2023-02-28T17:18:45;25.60;41.80
47174;DHT22;36730;49.036;9.094;2023-02-28T17:21:13;25.60;42.20
47174;DHT22;36730;49.036;9.094;2023-02-28T17:23:38;25.60;42.10
47174;DHT22;36730;49.036;9.094;2023-02-28T17:26:04;25.60;42.30
47174;DHT22;36730;49.036;9.094;2023-02-28T17:28:32;25.60;42.00
47174;DHT22;36730;49.036;9.094;2023-02-28T17:30:57;25.60;42.10
47174;DHT22;36730;49.036;9.094;2023-02-28T17:33:23;25.60;42.10
47174;DHT22;36730;49.036;9.094;2023-02-28T17:35:48;25.60;42.80
47174;DHT22;36730;49.036;9.094;2023-02-28T17:38:15;25.60;42.60
47174;DHT22;36730;49.036;9.094;2023-02-28T17:40:41;25.60;42.10
47174;DHT22;36730;49.036;9.094;2023-02-28T17:43:06;25.60;41.50
47174;DHT22;36730;49.036;9.094;2023-02-28T17:45:32;25.60;42.30
47174;DHT22;36730;49.036;9.094;2023-02-28T17:47:59;25.60;42.30
47174;DHT22;36730;49.036;9.094;2023-02-28T17:50:25;25.60;41.80